sensor_id;sensor_type;location;lat;lon;timestamp;temperature;humidity
41924;DHT22;27613;48.116;11.656;2023-10-09T00:00:50;13.20;99.90
41924;DHT22;27613;48.116;11.656;2023-10-09T00:03:19;13.20;99.90
41924;DHT22;27613;48.116;11.656;2023-10-09T00:05:49;13.20;99.90
41924;DHT22;27613;48.116;11.656;2023-10-09T00:08:18;13.10;99.90
41924;DHT22;27613;48.116;11.656;2023-10-09T00:10:48;13.10;99.90
41924;DHT22;27613;48.116;11.656;2023-10-09T00:13:24;13.10;99.90
41924;DHT22;27613;48.116;11.656;2023-10-09T00:16:06;13.10;99.90
41924;DHT22;27613;48.116;11.656;2023-10-09T00:18:39;13.00;99.90
41924;DHT22;27613;48.116;11.656;2023-10-09T00:21:05;13.00;99.90
41924;DHT22;27613;48.116;11.656;2023-10-09T00:23:37;13.00;99.90
41924;DHT22;27613;48.116;11.656;2023-10-09T00:26:03;13.00;99.90
41924;DHT22;27613;48.116;11.656;2023-10-09T00:28:36;13.00;99.90
41924;DHT22;27613;48.116;11.656;2023-10-09T00:31:04;13.00;99.90
41924;DHT22;27613;48.116;11.656;2023-10-09T00:33:33;13.00;99.90
41924;DHT22;27613;48.116;11.656;2023-10-09T00:36:04;13.10;99.90
41924;DHT22;27613;48.116;11.656;2023-10-09T00:38:36;13.00;99.90
41924;DHT22;27613;48.116;11.656;2023-10-09T00:41:05;13.10;99.90
41924;DHT22;27613;48.116;11.656;2023-10-09T00:43:34;13.10;99.90
41924;DHT22;27613;48.116;11.656;2023-10-09T00:46:02;13.10;99.90
41924;DHT22;27613;48.116;11.656;2023-10-09T00:48:28;13.10;99.90
41924;DHT22;27613;48.116;11.656;2023-10-09T00:51:03;13.10;99.90
41924;DHT22;27613;48.116;11.656;2023-10-09T00:53:38;13.10;99.90
41924;DHT22;27613;48.116;11.656;2023-10-09T00:56:04;13.10;99.90
41924;DHT22;27613;48.116;11.656;2023-10-09T00:58:47;13.20;99.90
41924;DHT22;27613;48.116;11.656;2023-10-09T01:01:36;13.20;99.90
41924;DHT22;27613;48.116;11.656;2023-10-09T01:04:04;13.40;99.90
41924;DHT22;27613;48.116;11.656;2023-10-09T01:06:42;13.40;99.90
41924;DHT22;27613;48.116;11.656;2023-10-09T01:09:13;13.50;99.90
41924;DHT22;27613;48.116;11.656;2023-10-09T01:11:42;13.60;99.90
41924;DHT22;27613;48.116;11.656;2023-10-09T01:14:17;13.60;99.90
41924;DHT22;27613;48.116;11.656;2023-10-09T01:16:46;13.60;99.90
41924;DHT22;27613;48.116;11.656;2023-10-09T01:19:13;13.60;99.90
41924;DHT22;27613;48.116;11.656;2023-10-09T01:21:45;13.50;99.90
41924;DHT22;27613;48.116;11.656;2023-10-09T01:24:10;13.40;99.90
41924;DHT22;27613;48.116;11.656;2023-10-09T01:26:38;13.40;99.90
41924;DHT22;27613;48.116;11.656;2023-10-09T01:29:17;13.30;99.90
41924;DHT22;27613;48.116;11.656;2023-10-09T01:31:51;13.30;99.90
41924;DHT22;27613;48.116;11.656;2023-10-09T01:34:31;13.40;99.90
41924;DHT22;27613;48.116;11.656;2023-10-09T01:37:19;13.40;99.90
41924;DHT22;27613;48.116;11.656;2023-10-09T01:39:49;13.40;99.90
41924;DHT22;27613;48.116;11.656;2023-10-09T01:42:17;13.50;99.90
41924;DHT22;27613;48.116;11.656;2023-10-09T01:45:03;13.60;99.90
41924;DHT22;27613;48.116;11.656;2023-10-09T01:47:51;13.50;99.90
41924;DHT22;27613;48.116;11.656;2023-10-09T01:50:17;13.50;99.90
41924;DHT22;27613;48.116;11.656;2023-10-09T01:53:03;13.50;99.90
41924;DHT22;27613;48.116;11.656;2023-10-09T01:55:31;13.50;99.90
41924;DHT22;27613;48.116;11.656;2023-10-09T01:58:05;13.50;99.90
41924;DHT22;27613;48.116;11.656;2023-10-09T02:00:32;13.50;99.90
41924;DHT22;27613;48.116;11.656;2023-10-09T02:03:08;13.40;99.90
41924;DHT22;27613;48.116;11.656;2023-10-09T02:05:43;13.40;99.90
41924;DHT22;27613;48.116;11.656;2023-10-09T02:08:09;13.40;99.90
41924;DHT22;27613;48.116;11.656;2023-10-09T02:10:36;13.40;99.90
41924;DHT22;27613;48.116;11.656;2023-10-09T02:13:07;13.30;99.90
41924;DHT22;27613;48.116;11.656;2023-10-09T02:15:36;13.30;99.90
41924;DHT22;27613;48.116;11.656;2023-10-09T02:18:13;13.20;99.90
41924;DHT22;27613;48.116;11.656;2023-10-09T02:20:49;13.10;99.90
41924;DHT22;27613;48.116;11.656;2023-10-09T02:23:38;13.10;99.90
41924;DHT22;27613;48.116;11.656;2023-10-09T02:26:12;13.00;99.90
41924;DHT22;27613;48.116;11.656;2023-10-09T02:28:47;13.00;99.90
41924;DHT22;27613;48.116;11.656;2023-10-09T02:31:24;13.00;99.90
41924;DHT22;27613;48.116;11.656;2023-10-09T02:33:51;12.90;99.90
41924;DHT22;27613;48.116;11.656;2023-10-09T02:36:20;12.90;99.90
41924;DHT22;27613;48.116;11.656;2023-10-09T02:38:45;12.80;99.90
41924;DHT22;27613;48.116;11.656;2023-10-09T02:41:15;12.80;99.90
41924;DHT22;27613;48.116;11.656;2023-10-09T02:43:40;12.90;99.90
41924;DHT22;27613;48.116;11.656;2023-10-09T02:46:19;12.80;99.90
41924;DHT22;27613;48.116;11.656;2023-10-09T02:48:49;12.90;99.90
41924;DHT22;27613;48.116;11.656;2023-10-09T02:51:22;12.90;99.90
41924;DHT22;27613;48.116;11.656;2023-10-09T02:53:54;13.00;99.90
41924;DHT22;27613;48.116;11.656;2023-10-09T02:56:26;13.10;99.90
41924;DHT22;27613;48.116;11.656;2023-10-09T02:59:09;13.10;99.90
41924;DHT22;27613;48.116;11.656;2023-10-09T03:01:37;13.20;99.90
41924;DHT22;27613;48.116;11.656;2023-10-09T03:04:07;13.30;99.90
41924;DHT22;27613;48.116;11.656;2023-10-09T03:06:36;13.40;99.90
41924;DHT22;27613;48.116;11.656;2023-10-09T03:09:03;13.50;99.90
41924;DHT22;27613;48.116;11.656;2023-10-09T03:11:46;13.50;99.90
41924;DHT22;27613;48.116;11.656;2023-10-09T03:14:14;13.60;99.90
41924;DHT22;27613;48.116;11.656;2023-10-09T03:16:39;13.70;99.90
41924;DHT22;27613;48.116;11.656;2023-10-09T03:19:05;13.70;99.90
41924;DHT22;27613;48.116;11.656;2023-10-09T03:21:30;13.60;99.90
41924;DHT22;27613;48.116;11.656;2023-10-09T03:23:56;13.60;99.90
41924;DHT22;27613;48.116;11.656;2023-10-09T03:26:22;13.60;99.90
41924;DHT22;27613;48.116;11.656;2023-10-09T03:28:51;13.60;99.90
41924;DHT22;27613;48.116;11.656;2023-10-09T03:31:18;13.60;99.90
41924;DHT22;27613;48.116;11.656;2023-10-09T03:33:43;13.60;99.90
41924;DHT22;27613;48.116;11.656;2023-10-09T03:36:09;13.70;99.90
41924;DHT22;27613;48.116;11.656;2023-10-09T03:38:38;13.80;99.90
41924;DHT22;27613;48.116;11.656;2023-10-09T03:41:05;13.80;99.90
41924;DHT22;27613;48.116;11.656;2023-10-09T03:43:37;13.80;99.90
41924;DHT22;27613;48.116;11.656;2023-10-09T03:46:10;13.70;99.90
41924;DHT22;27613;48.116;11.656;2023-10-09T03:48:58;13.90;99.90
41924;DHT22;27613;48.116;11.656;2023-10-09T03:51:26;13.80;99.90
41924;DHT22;27613;48.116;11.656;2023-10-09T03:53:52;13.70;99.90
41924;DHT22;27613;48.116;11.656;2023-10-09T03:56:21;13.60;99.90
41924;DHT22;27613;48.116;11.656;2023-10-09T03:58:48;13.50;99.90
41924;DHT22;27613;48.116;11.656;2023-10-09T04:01:21;13.60;99.90
41924;DHT22;27613;48.116;11.656;2023-10-09T04:03:58;13.50;99.90
41924;DHT22;27613;48.116;11.656;2023-10-09T04:06:28;13.50;99.90
41924;DHT22;27613;48.116;11.656;2023-10-09T04:08:56;13.50;99.90
41924;DHT22;27613;48.116;11.656;2023-10-09T04:11:24;13.30;99.90
41924;DHT22;27613;48.116;11.656;2023-10-09T04:13:50;13.30;99.90
41924;DHT22;27613;48.116;11.656;2023-10-09T04:16:18;13.10;99.90
41924;DHT22;27613;48.116;11.656;2023-10-09T04:19:01;12.90;99.90
41924;DHT22;27613;48.116;11.656;2023-10-09T04:21:33;12.70;99.90
41924;DHT22;27613;48.116;11.656;2023-10-09T04:24:06;12.70;99.90
41924;DHT22;27613;48.116;11.656;2023-10-09T04:26:43;12.50;99.90
41924;DHT22;27613;48.116;11.656;2023-10-09T04:29:15;12.40;99.90
41924;DHT22;27613;48.116;11.656;2023-10-09T04:31:55;12.30;99.90
41924;DHT22;27613;48.116;11.656;2023-10-09T04:34:25;12.30;99.90
41924;DHT22;27613;48.116;11.656;2023-10-09T04:36:57;12.20;99.90
41924;DHT22;27613;48.116;11.656;2023-10-09T04:39:41;12.20;99.90
41924;DHT22;27613;48.116;11.656;2023-10-09T04:42:14;12.10;99.90
41924;DHT22;27613;48.116;11.656;2023-10-09T04:45:05;12.10;99.90
41924;DHT22;27613;48.116;11.656;2023-10-09T04:47:33;12.10;99.90
41924;DHT22;27613;48.116;11.656;2023-10-09T04:50:07;12.10;99.90
41924;DHT22;27613;48.116;11.656;2023-10-09T04:52:51;12.10;99.90
41924;DHT22;27613;48.116;11.656;2023-10-09T04:55:17;12.10;99.90
41924;DHT22;27613;48.116;11.656;2023-10-09T04:57:50;12.00;99.90
41924;DHT22;27613;48.116;11.656;2023-10-09T05:00:36;12.00;99.90
41924;DHT22;27613;48.116;11.656;2023-10-09T05:03:12;12.00;99.90
41924;DHT22;27613;48.116;11.656;2023-10-09T05:05:50;12.00;99.90
41924;DHT22;27613;48.116;11.656;2023-10-09T05:08:25;12.00;99.90
41924;DHT22;27613;48.116;11.656;2023-10-09T05:13:35;12.00;99.90
41924;DHT22;27613;48.116;11.656;2023-10-09T05:18:44;12.00;99.90
41924;DHT22;27613;48.116;11.656;2023-10-09T05:21:11;12.10;99.90
41924;DHT22;27613;48.116;11.656;2023-10-09T05:23:55;12.10;99.90
41924;DHT22;27613;48.116;11.656;2023-10-09T05:26:46;12.00;99.90
41924;DHT22;27613;48.116;11.656;2023-10-09T05:29:21;12.00;99.90
41924;DHT22;27613;48.116;11.656;2023-10-09T05:32:00;12.00;99.90
41924;DHT22;27613;48.116;11.656;2023-10-09T05:34:53;12.00;99.90
41924;DHT22;27613;48.116;11.656;2023-10-09T05:37:29;12.00;99.90
41924;DHT22;27613;48.116;11.656;2023-10-09T05:40:09;12.00;99.90
41924;DHT22;27613;48.116;11.656;2023-10-09T05:42:45;12.00;99.90
41924;DHT22;27613;48.116;11.656;2023-10-09T05:45:15;12.00;99.90
41924;DHT22;27613;48.116;11.656;2023-10-09T05:47:52;12.00;99.90
41924;DHT22;27613;48.116;11.656;2023-10-09T05:50:30;12.00;99.90
41924;DHT22;27613;48.116;11.656;2023-10-09T05:52:58;12.00;99.90
41924;DHT22;27613;48.116;11.656;2023-10-09T05:55:28;12.00;99.90
41924;DHT22;27613;48.116;11.656;2023-10-09T05:58:12;12.00;99.90
41924;DHT22;27613;48.116;11.656;2023-10-09T06:00:56;12.10;99.90
41924;DHT22;27613;48.116;11.656;2023-10-09T06:03:40;12.10;99.90
41924;DHT22;27613;48.116;11.656;2023-10-09T06:06:22;12.20;99.90
41924;DHT22;27613;48.116;11.656;2023-10-09T06:09:03;12.30;99.90
41924;DHT22;27613;48.116;11.656;2023-10-09T06:11:55;12.40;99.90
41924;DHT22;27613;48.116;11.656;2023-10-09T06:14:23;12.40;99.90
41924;DHT22;27613;48.116;11.656;2023-10-09T06:17:13;12.50;99.90
41924;DHT22;27613;48.116;11.656;2023-10-09T06:19:38;12.60;99.90
41924;DHT22;27613;48.116;11.656;2023-10-09T06:22:10;12.90;99.90
41924;DHT22;27613;48.116;11.656;2023-10-09T06:24:54;13.10;99.90
41924;DHT22;27613;48.116;11.656;2023-10-09T06:27:21;13.30;99.90
41924;DHT22;27613;48.116;11.656;2023-10-09T06:29:51;13.50;99.90
41924;DHT22;27613;48.116;11.656;2023-10-09T06:32:18;13.80;99.90
41924;DHT22;27613;48.116;11.656;2023-10-09T06:34:51;14.00;99.90
41924;DHT22;27613;48.116;11.656;2023-10-09T06:37:21;14.20;99.90
41924;DHT22;27613;48.116;11.656;2023-10-09T06:39:53;14.30;99.90
41924;DHT22;27613;48.116;11.656;2023-10-09T06:42:19;14.40;99.90
41924;DHT22;27613;48.116;11.656;2023-10-09T06:47:32;14.60;99.90
41924;DHT22;27613;48.116;11.656;2023-10-09T06:50:13;14.60;99.90
41924;DHT22;27613;48.116;11.656;2023-10-09T06:52:58;14.70;99.90
41924;DHT22;27613;48.116;11.656;2023-10-09T06:55:37;14.90;99.90
41924;DHT22;27613;48.116;11.656;2023-10-09T06:58:14;15.00;99.90
41924;DHT22;27613;48.116;11.656;2023-10-09T07:00:42;15.10;99.90
41924;DHT22;27613;48.116;11.656;2023-10-09T07:03:20;15.20;99.90
41924;DHT22;27613;48.116;11.656;2023-10-09T07:06:06;15.30;99.90
41924;DHT22;27613;48.116;11.656;2023-10-09T07:08:36;15.40;99.40
41924;DHT22;27613;48.116;11.656;2023-10-09T07:11:09;15.40;98.70
41924;DHT22;27613;48.116;11.656;2023-10-09T07:14:08;15.40;98.40
41924;DHT22;27613;48.116;11.656;2023-10-09T07:16:55;15.50;98.60
41924;DHT22;27613;48.116;11.656;2023-10-09T07:19:24;15.70;98.80
41924;DHT22;27613;48.116;11.656;2023-10-09T07:22:14;15.90;97.50
41924;DHT22;27613;48.116;11.656;2023-10-09T07:24:52;16.20;96.80
41924;DHT22;27613;48.116;11.656;2023-10-09T07:27:40;16.40;95.90
41924;DHT22;27613;48.116;11.656;2023-10-09T07:30:20;16.70;95.10
41924;DHT22;27613;48.116;11.656;2023-10-09T07:33:06;16.90;94.80
41924;DHT22;27613;48.116;11.656;2023-10-09T07:35:32;17.30;93.80
41924;DHT22;27613;48.116;11.656;2023-10-09T07:38:18;17.40;93.00
41924;DHT22;27613;48.116;11.656;2023-10-09T07:41:16;17.60;93.10
41924;DHT22;27613;48.116;11.656;2023-10-09T07:43:42;19.20;90.40
41924;DHT22;27613;48.116;11.656;2023-10-09T07:46:15;20.40;84.40
41924;DHT22;27613;48.116;11.656;2023-10-09T07:49:03;21.70;80.00
41924;DHT22;27613;48.116;11.656;2023-10-09T07:51:36;23.00;73.80
41924;DHT22;27613;48.116;11.656;2023-10-09T07:54:02;23.50;71.30
41924;DHT22;27613;48.116;11.656;2023-10-09T07:56:38;22.60;69.00
41924;DHT22;27613;48.116;11.656;2023-10-09T07:59:07;21.60;72.40
41924;DHT22;27613;48.116;11.656;2023-10-09T08:01:37;21.00;74.10
41924;DHT22;27613;48.116;11.656;2023-10-09T08:04:03;20.60;74.90
41924;DHT22;27613;48.116;11.656;2023-10-09T08:06:52;20.80;73.60
41924;DHT22;27613;48.116;11.656;2023-10-09T08:09:18;20.80;73.50
41924;DHT22;27613;48.116;11.656;2023-10-09T08:11:53;20.90;73.10
41924;DHT22;27613;48.116;11.656;2023-10-09T08:14:40;20.80;73.10
41924;DHT22;27613;48.116;11.656;2023-10-09T08:17:13;20.80;73.40
41924;DHT22;27613;48.116;11.656;2023-10-09T08:19:48;21.00;71.80
41924;DHT22;27613;48.116;11.656;2023-10-09T08:22:30;21.00;71.70
41924;DHT22;27613;48.116;11.656;2023-10-09T08:24:56;20.70;71.60
41924;DHT22;27613;48.116;11.656;2023-10-09T08:27:27;20.70;72.10
41924;DHT22;27613;48.116;11.656;2023-10-09T08:29:56;20.60;72.60
41924;DHT22;27613;48.116;11.656;2023-10-09T08:32:40;20.70;71.10
41924;DHT22;27613;48.116;11.656;2023-10-09T08:35:11;21.10;71.10
41924;DHT22;27613;48.116;11.656;2023-10-09T08:38:01;21.10;70.90
41924;DHT22;27613;48.116;11.656;2023-10-09T08:40:39;21.50;70.60
41924;DHT22;27613;48.116;11.656;2023-10-09T08:43:16;21.60;69.40
41924;DHT22;27613;48.116;11.656;2023-10-09T08:45:57;21.60;68.90
41924;DHT22;27613;48.116;11.656;2023-10-09T08:48:27;21.80;68.20
41924;DHT22;27613;48.116;11.656;2023-10-09T08:50:55;21.80;67.70
41924;DHT22;27613;48.116;11.656;2023-10-09T08:53:23;22.30;67.70
41924;DHT22;27613;48.116;11.656;2023-10-09T08:55:49;22.20;66.50
41924;DHT22;27613;48.116;11.656;2023-10-09T08:58:17;21.80;67.70
41924;DHT22;27613;48.116;11.656;2023-10-09T09:00:56;21.50;68.20
41924;DHT22;27613;48.116;11.656;2023-10-09T09:03:24;21.30;69.40
41924;DHT22;27613;48.116;11.656;2023-10-09T09:05:58;21.20;69.70
41924;DHT22;27613;48.116;11.656;2023-10-09T09:08:30;21.10;70.00
41924;DHT22;27613;48.116;11.656;2023-10-09T09:11:16;21.00;70.80
41924;DHT22;27613;48.116;11.656;2023-10-09T09:13:46;21.00;70.80
41924;DHT22;27613;48.116;11.656;2023-10-09T09:16:18;21.00;71.20
41924;DHT22;27613;48.116;11.656;2023-10-09T09:18:53;20.90;70.10
41924;DHT22;27613;48.116;11.656;2023-10-09T09:21:29;21.00;70.90
41924;DHT22;27613;48.116;11.656;2023-10-09T09:23:57;21.00;70.60
41924;DHT22;27613;48.116;11.656;2023-10-09T09:26:39;21.00;70.50
41924;DHT22;27613;48.116;11.656;2023-10-09T09:29:11;21.20;69.90
41924;DHT22;27613;48.116;11.656;2023-10-09T09:31:37;21.30;69.70
41924;DHT22;27613;48.116;11.656;2023-10-09T09:34:07;21.40;69.40
41924;DHT22;27613;48.116;11.656;2023-10-09T09:36:54;21.60;69.70
41924;DHT22;27613;48.116;11.656;2023-10-09T09:39:26;21.70;69.00
41924;DHT22;27613;48.116;11.656;2023-10-09T09:41:59;21.70;69.00
41924;DHT22;27613;48.116;11.656;2023-10-09T09:44:33;21.90;67.70
41924;DHT22;27613;48.116;11.656;2023-10-09T09:47:09;22.10;68.10
41924;DHT22;27613;48.116;11.656;2023-10-09T09:49:41;22.10;67.50
41924;DHT22;27613;48.116;11.656;2023-10-09T09:52:07;22.00;67.10
41924;DHT22;27613;48.116;11.656;2023-10-09T09:54:37;22.00;66.60
41924;DHT22;27613;48.116;11.656;2023-10-09T09:57:04;21.80;67.90
41924;DHT22;27613;48.116;11.656;2023-10-09T09:59:40;21.80;67.70
41924;DHT22;27613;48.116;11.656;2023-10-09T10:02:10;21.80;66.80
41924;DHT22;27613;48.116;11.656;2023-10-09T10:04:39;21.80;68.30
41924;DHT22;27613;48.116;11.656;2023-10-09T10:07:06;21.90;66.20
41924;DHT22;27613;48.116;11.656;2023-10-09T10:09:41;21.90;67.10
41924;DHT22;27613;48.116;11.656;2023-10-09T10:12:12;22.20;66.30
41924;DHT22;27613;48.116;11.656;2023-10-09T10:14:56;22.10;66.90
41924;DHT22;27613;48.116;11.656;2023-10-09T10:18:14;22.20;66.10
41924;DHT22;27613;48.116;11.656;2023-10-09T10:21:09;22.20;64.80
41924;DHT22;27613;48.116;11.656;2023-10-09T10:23:42;22.30;64.90
41924;DHT22;27613;48.116;11.656;2023-10-09T10:26:20;22.60;65.10
41924;DHT22;27613;48.116;11.656;2023-10-09T10:29:16;23.00;63.00
41924;DHT22;27613;48.116;11.656;2023-10-09T10:34:20;23.50;61.50
41924;DHT22;27613;48.116;11.656;2023-10-09T10:36:49;23.60;60.80
41924;DHT22;27613;48.116;11.656;2023-10-09T10:39:18;23.60;61.10
41924;DHT22;27613;48.116;11.656;2023-10-09T10:41:53;23.50;61.10
41924;DHT22;27613;48.116;11.656;2023-10-09T10:44:30;23.60;61.00
41924;DHT22;27613;48.116;11.656;2023-10-09T10:47:07;23.60;59.70
41924;DHT22;27613;48.116;11.656;2023-10-09T10:49:53;23.50;60.40
41924;DHT22;27613;48.116;11.656;2023-10-09T10:52:24;23.10;60.10
41924;DHT22;27613;48.116;11.656;2023-10-09T10:55:16;23.00;60.20
41924;DHT22;27613;48.116;11.656;2023-10-09T10:58:00;22.80;60.80
41924;DHT22;27613;48.116;11.656;2023-10-09T11:00:30;22.90;60.90
41924;DHT22;27613;48.116;11.656;2023-10-09T11:03:19;23.00;60.70
41924;DHT22;27613;48.116;11.656;2023-10-09T11:05:48;23.00;60.80
41924;DHT22;27613;48.116;11.656;2023-10-09T11:08:23;23.20;60.20
41924;DHT22;27613;48.116;11.656;2023-10-09T11:10:50;23.10;59.80
41924;DHT22;27613;48.116;11.656;2023-10-09T11:13:23;23.40;59.70
41924;DHT22;27613;48.116;11.656;2023-10-09T11:16:00;23.60;58.90
41924;DHT22;27613;48.116;11.656;2023-10-09T11:18:46;23.80;57.70
41924;DHT22;27613;48.116;11.656;2023-10-09T11:21:15;24.30;57.50
41924;DHT22;27613;48.116;11.656;2023-10-09T11:23:41;25.00;56.50
41924;DHT22;27613;48.116;11.656;2023-10-09T11:26:24;25.20;56.50
41924;DHT22;27613;48.116;11.656;2023-10-09T11:29:13;25.10;57.90
41924;DHT22;27613;48.116;11.656;2023-10-09T11:34:25;27.00;53.50
41924;DHT22;27613;48.116;11.656;2023-10-09T11:37:01;26.70;54.40
41924;DHT22;27613;48.116;11.656;2023-10-09T11:39:32;26.40;53.80
41924;DHT22;27613;48.116;11.656;2023-10-09T11:42:09;25.50;56.60
41924;DHT22;27613;48.116;11.656;2023-10-09T11:44:43;25.40;55.90
41924;DHT22;27613;48.116;11.656;2023-10-09T11:47:11;25.10;55.00
41924;DHT22;27613;48.116;11.656;2023-10-09T11:49:51;25.00;56.40
41924;DHT22;27613;48.116;11.656;2023-10-09T11:52:31;25.30;56.30
41924;DHT22;27613;48.116;11.656;2023-10-09T11:55:04;25.60;54.60
41924;DHT22;27613;48.116;11.656;2023-10-09T11:57:33;25.40;52.90
41924;DHT22;27613;48.116;11.656;2023-10-09T12:00:03;24.80;55.30
41924;DHT22;27613;48.116;11.656;2023-10-09T12:02:48;24.60;56.80
41924;DHT22;27613;48.116;11.656;2023-10-09T12:07:13;23.90;56.40
41924;DHT22;27613;48.116;11.656;2023-10-09T12:09:39;23.90;56.30
41924;DHT22;27613;48.116;11.656;2023-10-09T12:12:06;23.80;56.20
41924;DHT22;27613;48.116;11.656;2023-10-09T12:14:35;24.10;56.20
41924;DHT22;27613;48.116;11.656;2023-10-09T12:17:04;23.90;55.50
41924;DHT22;27613;48.116;11.656;2023-10-09T12:19:39;23.80;55.20
41924;DHT22;27613;48.116;11.656;2023-10-09T12:22:06;23.60;56.50
41924;DHT22;27613;48.116;11.656;2023-10-09T12:24:36;23.80;56.60
41924;DHT22;27613;48.116;11.656;2023-10-09T12:27:03;23.60;56.70
41924;DHT22;27613;48.116;11.656;2023-10-09T12:29:35;23.50;56.30
41924;DHT22;27613;48.116;11.656;2023-10-09T12:32:00;23.40;57.00
41924;DHT22;27613;48.116;11.656;2023-10-09T12:34:28;23.40;57.40
41924;DHT22;27613;48.116;11.656;2023-10-09T12:36:54;23.40;57.00
41924;DHT22;27613;48.116;11.656;2023-10-09T12:39:23;23.20;56.90
41924;DHT22;27613;48.116;11.656;2023-10-09T12:41:49;23.10;57.60
41924;DHT22;27613;48.116;11.656;2023-10-09T12:44:19;23.00;56.60
41924;DHT22;27613;48.116;11.656;2023-10-09T12:46:45;22.80;57.20
41924;DHT22;27613;48.116;11.656;2023-10-09T12:49:19;22.80;57.90
41924;DHT22;27613;48.116;11.656;2023-10-09T12:51:45;22.80;57.00
41924;DHT22;27613;48.116;11.656;2023-10-09T12:54:10;22.60;57.50
41924;DHT22;27613;48.116;11.656;2023-10-09T12:56:38;22.60;58.10
41924;DHT22;27613;48.116;11.656;2023-10-09T12:59:04;22.50;57.70
41924;DHT22;27613;48.116;11.656;2023-10-09T13:01:31;22.50;57.30
41924;DHT22;27613;48.116;11.656;2023-10-09T13:04:14;22.40;57.40
41924;DHT22;27613;48.116;11.656;2023-10-09T13:06:43;22.40;57.80
41924;DHT22;27613;48.116;11.656;2023-10-09T13:09:13;22.40;58.60
41924;DHT22;27613;48.116;11.656;2023-10-09T13:11:40;22.40;58.90
41924;DHT22;27613;48.116;11.656;2023-10-09T13:14:07;22.20;59.50
41924;DHT22;27613;48.116;11.656;2023-10-09T13:16:48;22.20;59.30
41924;DHT22;27613;48.116;11.656;2023-10-09T13:19:16;22.10;59.70
41924;DHT22;27613;48.116;11.656;2023-10-09T13:21:43;22.10;60.00
41924;DHT22;27613;48.116;11.656;2023-10-09T13:24:09;22.10;59.80
41924;DHT22;27613;48.116;11.656;2023-10-09T13:26:49;22.10;60.50
41924;DHT22;27613;48.116;11.656;2023-10-09T13:29:23;22.20;60.80
41924;DHT22;27613;48.116;11.656;2023-10-09T13:31:49;22.20;60.40
41924;DHT22;27613;48.116;11.656;2023-10-09T13:34:16;22.10;60.00
41924;DHT22;27613;48.116;11.656;2023-10-09T13:36:42;22.00;61.20
41924;DHT22;27613;48.116;11.656;2023-10-09T13:39:21;22.00;60.70
41924;DHT22;27613;48.116;11.656;2023-10-09T13:41:55;21.90;61.10
41924;DHT22;27613;48.116;11.656;2023-10-09T13:44:25;21.90;60.80
41924;DHT22;27613;48.116;11.656;2023-10-09T13:47:01;21.90;61.20
41924;DHT22;27613;48.116;11.656;2023-10-09T13:49:28;21.70;62.50
41924;DHT22;27613;48.116;11.656;2023-10-09T13:51:57;21.60;61.80
41924;DHT22;27613;48.116;11.656;2023-10-09T13:54:23;21.60;62.00
41924;DHT22;27613;48.116;11.656;2023-10-09T13:57:02;21.60;62.20
41924;DHT22;27613;48.116;11.656;2023-10-09T13:59:32;21.60;62.00
41924;DHT22;27613;48.116;11.656;2023-10-09T14:02:00;21.60;63.00
41924;DHT22;27613;48.116;11.656;2023-10-09T14:04:28;21.40;63.90
41924;DHT22;27613;48.116;11.656;2023-10-09T14:06:54;21.00;71.90
41924;DHT22;27613;48.116;11.656;2023-10-09T14:09:24;20.60;74.40
41924;DHT22;27613;48.116;11.656;2023-10-09T14:12:20;20.20;73.00
41924;DHT22;27613;48.116;11.656;2023-10-09T14:14:47;19.80;75.40
41924;DHT22;27613;48.116;11.656;2023-10-09T14:17:17;19.70;73.10
41924;DHT22;27613;48.116;11.656;2023-10-09T14:19:51;19.40;77.40
41924;DHT22;27613;48.116;11.656;2023-10-09T14:22:18;19.30;79.00
41924;DHT22;27613;48.116;11.656;2023-10-09T14:24:45;19.30;79.60
41924;DHT22;27613;48.116;11.656;2023-10-09T14:27:12;19.30;78.70
41924;DHT22;27613;48.116;11.656;2023-10-09T14:29:47;19.40;79.60
41924;DHT22;27613;48.116;11.656;2023-10-09T14:32:13;19.30;80.30
41924;DHT22;27613;48.116;11.656;2023-10-09T14:34:39;19.40;77.20
41924;DHT22;27613;48.116;11.656;2023-10-09T14:37:11;19.50;80.00
41924;DHT22;27613;48.116;11.656;2023-10-09T14:39:38;19.60;76.90
41924;DHT22;27613;48.116;11.656;2023-10-09T14:44:33;19.70;75.70
41924;DHT22;27613;48.116;11.656;2023-10-09T14:47:03;19.70;76.90
41924;DHT22;27613;48.116;11.656;2023-10-09T14:49:31;19.70;77.20
41924;DHT22;27613;48.116;11.656;2023-10-09T14:52:00;19.70;76.70
41924;DHT22;27613;48.116;11.656;2023-10-09T14:54:26;19.70;77.40
41924;DHT22;27613;48.116;11.656;2023-10-09T14:56:53;19.80;77.70
41924;DHT22;27613;48.116;11.656;2023-10-09T14:59:20;19.80;79.80
41924;DHT22;27613;48.116;11.656;2023-10-09T15:01:47;19.70;80.70
41924;DHT22;27613;48.116;11.656;2023-10-09T15:04:15;19.70;82.00
41924;DHT22;27613;48.116;11.656;2023-10-09T15:06:41;19.70;82.70
41924;DHT22;27613;48.116;11.656;2023-10-09T15:09:07;19.70;81.50
41924;DHT22;27613;48.116;11.656;2023-10-09T15:11:47;19.70;83.00
41924;DHT22;27613;48.116;11.656;2023-10-09T15:14:13;19.70;82.90
41924;DHT22;27613;48.116;11.656;2023-10-09T15:16:39;19.60;82.80
41924;DHT22;27613;48.116;11.656;2023-10-09T15:19:04;19.60;81.50
41924;DHT22;27613;48.116;11.656;2023-10-09T15:21:31;19.60;81.80
41924;DHT22;27613;48.116;11.656;2023-10-09T15:23:59;19.60;83.30
41924;DHT22;27613;48.116;11.656;2023-10-09T15:26:25;19.60;85.60
41924;DHT22;27613;48.116;11.656;2023-10-09T15:28:53;19.60;86.40
41924;DHT22;27613;48.116;11.656;2023-10-09T15:31:19;19.50;84.10
41924;DHT22;27613;48.116;11.656;2023-10-09T15:33:47;19.50;83.30
41924;DHT22;27613;48.116;11.656;2023-10-09T15:36:15;19.50;84.90
41924;DHT22;27613;48.116;11.656;2023-10-09T15:38:42;19.50;83.60
41924;DHT22;27613;48.116;11.656;2023-10-09T15:41:08;19.40;81.60
41924;DHT22;27613;48.116;11.656;2023-10-09T15:43:35;19.40;82.50
41924;DHT22;27613;48.116;11.656;2023-10-09T15:46:01;19.30;81.90
41924;DHT22;27613;48.116;11.656;2023-10-09T15:48:27;19.20;82.00
41924;DHT22;27613;48.116;11.656;2023-10-09T15:50:52;19.20;82.40
41924;DHT22;27613;48.116;11.656;2023-10-09T15:53:18;19.20;82.00
41924;DHT22;27613;48.116;11.656;2023-10-09T15:55:47;19.20;82.20
41924;DHT22;27613;48.116;11.656;2023-10-09T15:58:17;19.10;81.80
41924;DHT22;27613;48.116;11.656;2023-10-09T16:00:45;19.10;80.60
41924;DHT22;27613;48.116;11.656;2023-10-09T16:03:11;19.10;81.10
41924;DHT22;27613;48.116;11.656;2023-10-09T16:05:39;19.10;82.20
41924;DHT22;27613;48.116;11.656;2023-10-09T16:08:06;19.00;81.50